Nearby METAR Reports

 

KMTN - Baltimore/Martin, Maryland, USA
Distance from station: SSE 8mi, 13km
Updated: Tue, 26-May-2015 8:45pm EDT
Partly cloudy
Partly cloudy
 Wind from SSE
Wind: SSE 18 mph , 30 km/h, Gust: 23 mph , 37 km/h
Temperature: 75°F , 24°C
Dew Point: 68°F , 20°C
Humidity: 78%
Barometer: 30.16 inHg , 1021.3 hPa
Clouds: Partly cloudy
Visibility: 10 miles , 16 km
Cloud details: Partly cloudy 20000 ft
2015/05/27 00:45 KMTN 270045Z 16016G20KT 10SM SCT200 24/20 A3016
KDMH - Baltimore/Dwntwn, Maryland, USA
Distance from station: SW 12mi, 19km
Updated: Tue, 26-May-2015 8:54pm EDT

 
Temperature: 75°F , 24°C
Dew Point: 64°F , 18°C
Humidity: 69%
Barometer: 30.15 inHg , 1021 hPa
2015/05/27 00:54 KDMH 270054Z AUTO 24/18 A3015 RMK AO1 SLP210 T02440183
 
KBWI - Balto/Wash Intl, Maryland, USA
Distance from station: SSW 20mi, 33km
Updated: Tue, 26-May-2015 8:54pm EDT
Mostly cloudy
Mostly cloudy
 Wind from SSE
Wind: SSE 7 mph , 11 km/h
Temperature: 75°F , 24°C
Dew Point: 64°F , 18°C
Humidity: 69%
Barometer: 30.14 inHg , 1020.7 hPa
Clouds: Mostly cloudy
Visibility: 10 miles , 16 km
Cloud details: Few Clouds 5000 ft
Partly cloudy 11000 ft
Partly cloudy 19000 ft
Mostly cloudy 25000 ft
2015/05/27 00:54 KBWI 270054Z 15006KT 10SM FEW050 SCT110 SCT190 BKN250 24/18 A3014 RMK AO2 SLP206 T02390183
KDMW - Carroll Cnty, Maryland, USA
Distance from station: WNW 30mi, 48km
Updated: Tue, 26-May-2015 9:15pm EDT
Clear
Clear
 Wind from SE
Wind: SE 6 mph , 9 km/h
Temperature: 79°F , 26°C
Dew Point: 66°F , 19°C
Humidity: 65%
Barometer: 30.15 inHg , 1021 hPa
Clouds: Clear
Visibility: 10 miles , 16 km
2015/05/27 01:15 KDMW 270115Z AUTO 14005KT 10SM CLR 26/19 A3015 RMK AO2
 
KNAK - Annapolis/Naval, Maryland, USA
Distance from station: S 30mi, 48km
Updated: Tue, 26-May-2015 8:54pm EDT
Clear
Clear
 Wind from S
Wind: S 14 mph , 22 km/h, Gust: 29 mph , 46 km/h
Temperature: 73°F , 23°C
Dew Point: 64°F , 18°C
Humidity: 74%
Barometer: 30.15 inHg , 1021 hPa
Clouds: Clear
Visibility: 10 miles , 16 km
2015/05/27 00:54 KNAK 270054Z AUTO 17012G25KT 10SM CLR 23/18 A3015 RMK AO2 SLP213 T02280178
KW29 - Stevensville, Maryland, USA
Distance from station: SSE 31mi, 50km
Updated: Tue, 26-May-2015 9:13pm EDT

 Wind from SSE
Wind: SSE 10 mph , 17 km/h, Gust: 16 mph , 26 km/h
Barometer: 30.17 inHg , 1021.7 hPa
Visibility: 10 miles , 16 km
2015/05/27 01:13 KW29 270113Z AUTO 15009G14KT 10SM A3017 RMK AO1
 
KCGS - College Park, Maryland, USA
Distance from station: SW 38mi, 61km
Updated: Tue, 26-May-2015 9:10pm EDT
Clear
Clear
 Wind from calm
Wind: Calm
Temperature: 81°F , 27°C
Heat Index: 83°F , 28°C
Dew Point: 66°F , 19°C
Humidity: 62%
Barometer: 30.14 inHg , 1020.7 hPa
Clouds: Clear
Visibility: 10 miles , 16 km
2015/05/27 01:10 KCGS 270110Z AUTO 00000KT 10SM CLR 27/19 A3014 RMK AO1
KGAI - Gaithersburg, Maryland, USA
Distance from station: WSW 40mi, 65km
Updated: Tue, 26-May-2015 9:15pm EDT
Clear
Clear
 Wind from SSE
Wind: SSE 7 mph , 11 km/h
Temperature: 79°F , 26°C
Dew Point: 64°F , 18°C
Humidity: 61%
Barometer: 30.18 inHg , 1022 hPa
Clouds: Clear
Visibility: 10 miles , 16 km
2015/05/27 01:15 KGAI 270115Z AUTO 15006KT 10SM CLR 26/18 A3018 RMK AO1
 
KTHV - York, Pennsylvania, USA
Distance from station: NNW 40mi, 65km
Updated: Tue, 26-May-2015 8:53pm EDT
Clear
Clear
 Wind from SSE
Wind: SSE 6 mph , 9 km/h
Temperature: 77°F , 25°C
Dew Point: 66°F , 19°C
Humidity: 69%
Barometer: 30.13 inHg , 1020.3 hPa
Clouds: Clear
Visibility: 10 miles , 16 km
2015/05/27 00:53 KTHV 270053Z AUTO 15005KT 10SM CLR 25/19 A3013 RMK AO2 SLP201 T02500194
KFDK - Frederick, Maryland, USA
Distance from station: W 47mi, 75km
Updated: Tue, 26-May-2015 9:10pm EDT
Clear
Clear
 Wind from SSE
Wind: SSE 5 mph , 7 km/h
Temperature: 79°F , 26°C
Dew Point: 68°F , 20°C
Humidity: 70%
Barometer: 30.15 inHg , 1021 hPa
Clouds: Clear
Visibility: 10 miles , 16 km
2015/05/27 01:10 KFDK 270110Z AUTO 16004KT 10SM CLR 26/20 A3015 RMK AO2
 
KESN - Easton/Newnam, Maryland, USA
Distance from station: SSE 48mi, 78km
Updated: Tue, 26-May-2015 8:50pm EDT
Clear
Clear
 Wind from S
Wind: S 8 mph , 13 km/h
Temperature: 77°F , 25°C
Dew Point: 66°F , 19°C
Humidity: 69%
Barometer: 30.21 inHg , 1023 hPa
Clouds: Clear
Visibility: 10 miles , 16 km
2015/05/27 00:50 KESN 270050Z 19007KT 10SM SKC 25/19 A3021
KDCA - Washington/Natl, Washington D.c., USA
Distance from station: SW 49mi, 79km
Updated: Tue, 26-May-2015 8:52pm EDT
Mostly cloudy
Mostly cloudy
 Wind from S
Wind: S 8 mph , 13 km/h
Temperature: 81°F , 27°C
Heat Index: 85°F , 29°C
Dew Point: 70°F , 21°C
Humidity: 70%
Barometer: 30.14 inHg , 1020.7 hPa
Clouds: Mostly cloudy
Visibility: 10 miles , 16 km
Cloud details: Partly cloudy 14000 ft
Mostly cloudy 25000 ft
2015/05/27 00:52 KDCA 270052Z 18007KT 10SM SCT140 BKN250 27/21 A3014 RMK AO2 SLP205 T02670206
 
KLNS - Lancaster, Pennsylvania, USA
Distance from station: N 49mi, 79km
Updated: Tue, 26-May-2015 8:53pm EDT
Clear
Clear
 Wind from S
Wind: S 9 mph , 15 km/h
Temperature: 75°F , 24°C
Dew Point: 66°F , 19°C
Humidity: 74%
Barometer: 30.13 inHg , 1020.3 hPa
Clouds: Clear
Visibility: 10 miles , 16 km
2015/05/27 00:53 KLNS 270053Z 17008KT 10SM CLR 24/19 A3013 RMK AO2 SLP201 T02440189
KILG - Wilmington, Delaware, USA
Distance from station: ENE 50mi, 81km
Updated: Tue, 26-May-2015 8:51pm EDT
Few Clouds
Few Clouds
 Wind from S
Wind: S 8 mph , 13 km/h
Temperature: 79°F , 26°C
Dew Point: 66°F , 19°C
Humidity: 65%
Barometer: 30.16 inHg , 1021.3 hPa
Clouds: Few Clouds
Visibility: 10 miles , 16 km
Cloud details: Few Clouds 5000 ft
2015/05/27 00:51 KILG 270051Z 19007KT 10SM FEW050 26/19 A3016 RMK AO2 SLP212 T02560189